• Join FlightAware (Why Join?)
  • Login
  • US Flag 
09:12PM EDT


 

Airport Tracker/Info


-or-


 

Live Flight TrackerFlight Track Log ✈ AAL6 ✈ 05-Apr-2012 ✈ PHOG / OGG - KDFW

Flight Track Log - Related Links

Times and Time Zones

All times are in EDT time to prevent confusion due to time zone crossing. See the AAL6 flight status page for this flight to view local times or setup timezone preferences in your user account.

Time Position Orientation Groundspeed Altitude Reporting Facility
EDT Latitude Longitude Course Direction KTS MPH feet Rate Location/Type
11:22PM 20.9000 -156.3938 41° Northeast  Level FlightAware Approximate
11:23PM 20.9167 -156.2513 318° Northwest  Level FlightAware Approximate
11:24PM 20.9384 -156.1129 283° West  Level FlightAware Approximate
11:25PM 20.9833 -156.3167 75° East 250 288 6,000  Level Honolulu Center
11:26PM 21.0000 -156.2500 70° East 280 322 8,900 2,520 Climbing Honolulu Center
11:27PM 21.0333 -156.1500 80° East 310 357 11,200 1,980 Climbing Honolulu Center
11:28PM 21.0500 -156.0500 73° East 380 437 13,000 2,400 Climbing Honolulu Center
11:29PM 21.0833 -155.9333 81° East 400 460 16,100 2,760 Climbing Honolulu Center
11:30PM 21.1000 -155.8167 75° East 420 483 18,600 2,220 Climbing Honolulu Center
11:31PM 21.1333 -155.6833 75° East 440 506 20,600 2,100 Climbing Honolulu Center
11:32PM 21.1667 -155.5500 75° East 460 529 22,900 2,040 Climbing Honolulu Center
11:33PM 21.2000 -155.4167 77° East 470 541 24,800 1,740 Climbing Honolulu Center
11:34PM 21.2333 -155.2667 77° East 490 564 26,400 1,380 Climbing Honolulu Center
11:35PM 21.2667 -155.1167 77° East 510 587 27,700 1,560 Climbing Honolulu Center
11:36PM 21.3000 -154.9667 77° East 520 598 29,600 1,860 Climbing Honolulu Center
11:37PM 21.3333 -154.8167 77° East 510 587 31,500 1,620 Climbing Honolulu Center
11:38PM 21.3667 -154.6667 77° East 510 587 32,900 1,320 Climbing Honolulu Center
11:39PM 21.4000 -154.5167 77° East 520 598 34,200 1,200 Climbing Honolulu Center
11:40PM 21.4333 -154.3667 77° East 520 598 35,300 1,200 Climbing Honolulu Center
11:41PM 21.4667 -154.2167 75° East 520 598 36,700 840 Climbing Honolulu Center
11:42PM 21.5000 -154.0833 77° East 510 587 37,000 120 Climbing Honolulu Center
11:43PM 21.5333 -153.9333 77° East 520 598 37,000  Level Honolulu Center
11:44PM 21.5667 -153.7833 77° East 520 598 37,000  Level Honolulu Center
11:45PM 21.6000 -153.6333 77° East 510 587 37,000  Level Honolulu Center
11:46PM 21.6333 -153.4833 77° East 520 598 37,000  Level Honolulu Center
11:47PM 21.6667 -153.3333 62° Northeast 510 587 37,000  Level Honolulu Center
12:46AM 25.2833 -145.5167 65° Northeast 498 573 37,000  Level Oakland Oceanic (ODAPS)
01:32AM 27.9167 -138.8500 68° East 506 582 37,000  Level Oakland Oceanic (ODAPS)
02:21AM 30.2833 -131.6333 71° East 495 570 37,000  Level Oakland Oceanic (ODAPS)
03:09AM 32.2544 -123.9828 74° East 457 526 37,000  Level Los Angeles Center
03:10AM 32.2942 -123.8194 75° East 504 580 37,000  Level Los Angeles Center
03:11AM 32.3314 -123.6556 77° East 515 593 37,000  Level Los Angeles Center
03:12AM 32.3650 -123.4839 75° East 522 601 37,000  Level Los Angeles Center
03:13AM 32.4017 -123.3222 74° East 521 600 37,000  Level Los Angeles Center
03:14AM 32.4458 -123.1389 77° East 527 606 37,000  Level Los Angeles Center
03:15AM 32.4725 -122.9983 75° East 527 606 37,000  Level Los Angeles Center
03:16AM 32.5167 -122.8047 77° East 522 601 37,000  Level Los Angeles Center
03:17AM 32.5489 -122.6325 74° East 527 606 37,000  Level Los Angeles Center
03:18AM 32.5889 -122.4678 77° East 522 601 37,000  Level Los Angeles Center
03:19AM 32.6225 -122.3003 75° East 522 601 37,000  Level Los Angeles Center
03:20AM 32.6603 -122.1328 77° East 522 601 37,000  Level Los Angeles Center
03:21AM 32.6933 -121.9647 76° East 527 606 37,000  Level Los Angeles Center
03:22AM 32.7283 -121.7967 75° East 527 606 37,000  Level Los Angeles Center
03:23AM 32.7653 -121.6286 77° East 527 606 37,000  Level Los Angeles Center
03:24AM 32.7981 -121.4578 76° East 527 606 37,000  Level Los Angeles Center
03:25AM 32.8344 -121.2872 76° East 528 608 37,000  Level Los Angeles Center
03:26AM 32.8686 -121.1211 77° East 528 608 37,000  Level Los Angeles Center
03:27AM 32.9028 -120.9450 77° East 528 608 37,000  Level Los Angeles Center
03:28AM 32.9364 -120.7761 76° East 528 608 37,000  Level Los Angeles Center
03:29AM 32.9722 -120.6047 77° East 528 608 37,000  Level Los Angeles Center
03:30AM 33.0033 -120.4378 76° East 528 608 37,000  Level Los Angeles Center
03:31AM 33.0386 -120.2636 78° East 528 608 37,000  Level Los Angeles Center
03:32AM 33.0692 -120.0917 78° East 528 608 37,000  Level Los Angeles Center
03:33AM 33.0947 -119.9442 77° East 522 601 37,000  Level Los Angeles Center
03:34AM 33.1269 -119.7769 77° East 516 594 37,000  Level Los Angeles Center
03:35AM 33.1592 -119.6047 77° East 516 594 37,000  Level Los Angeles Center
03:36AM 33.1911 -119.4347 78° East 522 601 37,000  Level Los Angeles Center
03:37AM 33.2253 -119.2447 77° East 522 601 37,000  Level Los Angeles Center
03:38AM 33.2567 -119.0769 78° East 522 601 37,000  Level Los Angeles Center
03:39AM 33.2858 -118.9067 77° East 522 601 37,000  Level Los Angeles Center
03:40AM 33.3186 -118.7336 79° East 522 601 37,000  Level Los Angeles Center
03:41AM 33.3472 -118.5631 78° East 522 601 37,000  Level Los Angeles Center
03:42AM 33.3778 -118.3872 81° East 522 601 37,000  Level Los Angeles Center
03:43AM 33.3997 -118.2136 81° East 522 601 37,000  Level Los Angeles Center
03:44AM 33.4233 -118.0400 80° East 527 606 37,000  Level Los Angeles Center
03:45AM 33.4492 -117.8639 81° East 527 606 37,000  Level Los Angeles Center
03:46AM 33.4722 -117.6900 81° East 527 606 37,000  Level Los Angeles Center
03:47AM 33.4908 -117.5458 80° East 527 606 37,000  Level Los Angeles Center
03:48AM 33.5178 -117.3544 81° East 527 606 37,000  Level Los Angeles Center
03:49AM 33.5428 -117.1631 81° East 527 606 37,000  Level Los Angeles Center
03:50AM 33.5669 -116.9861 82° East 527 606 37,000  Level Los Angeles Center
03:51AM 33.5869 -116.8069 82° East 532 612 37,000  Level Los Angeles Center
03:52AM 33.6044 -116.6525 81° East 532 612 37,000  Level Los Angeles Center
03:53AM 33.6281 -116.4731 82° East 532 612 37,000  Level Los Angeles Center
03:54AM 33.6492 -116.2958 82° East 537 618 37,000  Level Los Angeles Center
03:55AM 33.6703 -116.1211 83° East 537 618 37,000  Level Los Angeles Center
03:56AM 33.6889 -115.9414 82° East 537 618 37,000  Level Los Angeles Center
03:57AM 33.7094 -115.7617 81° East 537 618 37,000  Level Los Angeles Center
03:58AM 33.7317 -115.5867 83° East 537 618 37,000  Level Los Angeles Center
03:59AM 33.7497 -115.4067 83° East 542 624 37,000  Level Los Angeles Center
04:00AM 33.7692 -115.2267 83° East 542 624 37,000  Level Los Angeles Center
04:01AM 33.7886 -115.0464 83° East 542 624 37,000  Level Los Angeles Center
04:02AM 33.8058 -114.8689 82° East 542 624 37,000  Level Los Angeles Center
04:03AM 33.8267 -114.6908 83° East 542 624 37,000  Level Los Angeles Center
04:04AM 33.8456 -114.5106 84° East 542 624 37,000  Level Los Angeles Center
04:06AM 33.8725 -114.1914 83° East 531 611 37,000  Level Albuquerque Center
04:07AM 33.8908 -114.0128 82° East 536 617 37,000  Level Albuquerque Center
04:08AM 33.9111 -113.8369 82° East 536 617 37,000  Level Albuquerque Center
04:09AM 33.9308 -113.6583 84° East 536 617 37,000  Level Albuquerque Center
04:10AM 33.9464 -113.4792 84° East 536 617 37,000  Level Albuquerque Center
04:11AM 33.9608 -113.3200 83° East 536 617 37,000  Level Albuquerque Center
04:12AM 33.9781 -113.1383 83° East 536 617 37,000  Level Albuquerque Center
04:13AM 33.9947 -112.9617 84° East 536 617 37,000  Level Albuquerque Center
04:14AM 34.0114 -112.7825 83° East 536 617 37,000  Level Albuquerque Center
04:15AM 34.0328 -112.5808 84° East 536 617 37,000  Level Albuquerque Center
04:16AM 34.0486 -112.4064 85° East 531 611 37,000  Level Albuquerque Center
04:17AM 34.0625 -112.2269 91° East 536 617 37,000  Level Albuquerque Center
04:18AM 34.0592 -112.0461 91° East 536 617 37,000  Level Albuquerque Center
04:19AM 34.0572 -111.8831 90° East 536 617 37,000  Level Albuquerque Center
04:20AM 34.0558 -111.6900 91° East 536 617 37,000  Level Albuquerque Center
04:21AM 34.0533 -111.5319 90° East 536 617 37,000  Level Albuquerque Center
04:22AM 34.0525 -111.3717 91° East 530 610 37,000  Level Albuquerque Center
04:23AM 34.0483 -111.1808 89° East 530 610 37,000  Level Albuquerque Center
04:24AM 34.0503 -110.9856 90° East 525 604 37,000  Level Albuquerque Center
04:25AM 34.0492 -110.8100 93° East 525 604 37,000  Level Albuquerque Center
04:26AM 34.0431 -110.6492 91° East 520 598 37,000  Level Albuquerque Center
04:27AM 34.0394 -110.4736 90° East 520 598 37,000  Level Albuquerque Center
04:28AM 34.0397 -110.2983 82° East 520 598 37,000  Level Albuquerque Center
04:29AM 34.0606 -110.1211 83° East 520 598 37,000  Level Albuquerque Center
04:30AM 34.0772 -109.9461 83° East 520 598 37,000  Level Albuquerque Center
04:31AM 34.0958 -109.7536 83° East 525 604 37,000  Level Albuquerque Center
04:32AM 34.1136 -109.5761 85° East 519 597 37,000  Level Albuquerque Center
04:33AM 34.1272 -109.4008 93° East 519 597 37,000  Level Albuquerque Center
04:34AM 34.1197 -109.2250 93° East 519 597 37,000  Level Albuquerque Center
04:35AM 34.1119 -109.0517 92° East 519 597 37,000  Level Albuquerque Center
04:36AM 34.1058 -108.8786 93° East 519 597 37,000  Level Albuquerque Center
04:37AM 34.0975 -108.7028 92° East 519 597 37,000  Level Albuquerque Center
04:38AM 34.0911 -108.5272 93° East 519 597 37,000  Level Albuquerque Center
04:39AM 34.0822 -108.3517 94° East 519 597 37,000  Level Albuquerque Center
04:40AM 34.0731 -108.1736 95° East 519 597 37,000  Level Albuquerque Center
04:41AM 34.0617 -108.0078 93° East 508 585 37,000  Level Albuquerque Center
04:42AM 34.0542 -107.8322 94° East 513 590 37,000  Level Albuquerque Center
04:43AM 34.0442 -107.6794 93° East 520 598 37,000  Level Albuquerque Center
04:44AM 34.0361 -107.5014 93° East 520 598 37,000  Level Albuquerque Center
04:45AM 34.0278 -107.3286 93° East 520 598 37,000  Level Albuquerque Center
04:46AM 34.0194 -107.1533 93° East 520 598 37,000  Level Albuquerque Center
04:47AM 34.0106 -106.9778 94° East 515 593 37,000  Level Albuquerque Center
04:48AM 33.9994 -106.8025 94° East 521 600 37,000  Level Albuquerque Center
04:49AM 33.9903 -106.6347 95° East 513 590 37,000  Level Albuquerque Center
04:50AM 33.9786 -106.4597 94° East 513 590 37,000  Level Albuquerque Center
04:51AM 33.9689 -106.2844 94° East 518 596 37,000  Level Albuquerque Center
04:52AM 33.9586 -106.1069 94° East 518 596 37,000  Level Albuquerque Center
04:53AM 33.9486 -105.9392 95° East 513 590 37,000  Level Albuquerque Center
04:54AM 33.9336 -105.7442 95° East 513 590 37,000  Level Albuquerque Center
04:55AM 33.9206 -105.5719 95° East 518 596 37,000  Level Albuquerque Center
04:56AM 33.9100 -105.4194 95° East 518 596 37,000  Level Albuquerque Center
04:57AM 33.8964 -105.2322 94° East 518 596 37,000  Level Albuquerque Center
04:58AM 33.8847 -105.0547 96° East 520 598 37,000  Level Albuquerque Center
04:59AM 33.8708 -104.8875 95° East 520 598 37,000  Level Albuquerque Center
05:00AM 33.8589 -104.7131 94° East 515 593 37,000  Level Albuquerque Center
05:01AM 33.8486 -104.5433 95° East 515 593 37,000  Level Albuquerque Center
05:03AM 33.8267 -104.2711 96° East 521 600 37,000  Level Fort Worth Center
05:04AM 33.8128 -104.1050 96° East 504 580 37,000  Level Fort Worth Center
05:05AM 33.7986 -103.9364 94° East 498 573 37,000  Level Fort Worth Center
05:06AM 33.7886 -103.7708 97° East 498 573 37,000  Level Fort Worth Center
05:07AM 33.7714 -103.6122 95° East 498 573 37,000  Level Fort Worth Center
05:08AM 33.7589 -103.4442 95° East 499 574 37,000  Level Fort Worth Center
05:09AM 33.7467 -103.2608 97° East 506 582 37,000  Level Fort Worth Center
05:10AM 33.7311 -103.1000 97° East 496 571 37,000  Level Fort Worth Center
05:11AM 33.7136 -102.9292 97° East 502 578 37,000  Level Fort Worth Center
05:12AM 33.6992 -102.7808 97° East 502 578 37,000  Level Fort Worth Center
05:13AM 33.6797 -102.5975 96° East 502 578 37,000  Level Fort Worth Center
05:14AM 33.6672 -102.4447 97° East 502 578 37,000  Level Fort Worth Center
05:15AM 33.6494 -102.2639 96° East 507 583 37,000  Level Fort Worth Center
05:16AM 33.6364 -102.1111 96° East 507 583 37,000  Level Fort Worth Center
05:17AM 33.6219 -101.9383 98° East 509 586 37,000  Level Fort Worth Center
05:18AM 33.6028 -101.7703 102° East 514 592 37,000  Level Fort Worth Center
05:19AM 33.5697 -101.5817 100° East 524 603 37,000  Level Fort Worth Center
05:20AM 33.5456 -101.4258 102° East 524 603 37,000  Level Fort Worth Center
05:21AM 33.5119 -101.2350 101° East 524 603 37,000  Level Fort Worth Center
05:22AM 33.4872 -101.0797 101° East 531 611 37,000  Level Fort Worth Center
05:23AM 33.4608 -100.9117 101° East 526 605 37,000  Level Fort Worth Center
05:24AM 33.4319 -100.7389 101° East 526 605 37,000  Level Fort Worth Center
05:25AM 33.4033 -100.5636 102° East 526 605 37,000  Level Fort Worth Center
05:26AM 33.3739 -100.3933 102° East 526 605 37,000  Level Fort Worth Center
05:27AM 33.3444 -100.2233 101° East 526 605 37,000  Level Fort Worth Center
05:28AM 33.3131 -100.0383 102° East 526 605 37,000  Level Fort Worth Center
05:29AM 33.2831 -99.8686 96° East 521 600 37,000  Level Fort Worth Center
05:30AM 33.2661 -99.6800 102° East 514 592 37,000  Level FlightAware ADS-B
05:31AM 33.2254 -99.4501 102° East 513 590 37,000  Level FlightAware ADS-B
05:32AM 33.2084 -99.3550 102° East 514 592 37,000  Level FlightAware ADS-B
05:32AM 33.1935 -99.2720 102° East 514 592 37,000 -720 Level FlightAware ADS-B
05:33AM 33.1784 -99.1879 102° East 512 589 36,300 -2,400 Descending FlightAware ADS-B
05:34AM 33.1579 -99.0754 102° East 516 594 34,200 -3,120 Descending FlightAware ADS-B
05:34AM 33.1372 -98.9616 115° Southeast 515 593 32,100 -2,940 Descending FlightAware ADS-B
05:35AM 33.1006 -98.8667 103° East 510 587 30,500 -3,180 Descending Fort Worth Center
05:36AM 33.0689 -98.7025 102° East 510 587 27,200 -3,060 Descending Fort Worth Center
05:37AM 33.0411 -98.5433 103° East 505 581 24,600 -3,000 Descending Fort Worth Center
05:38AM 33.0111 -98.3894 104° East 488 562 21,200 -3,240 Descending Fort Worth Center
05:39AM 32.9850 -98.2603 100° East 454 522 18,100 -3,180 Descending Fort Worth Center
05:40AM 32.9631 -98.1175 104° East 426 490 15,100 -2,820 Descending FAA TRACON SMA TRACON (SMA)
05:40AM 32.9442 -98.0250 103° East 414 476 13,600 -1,740 Descending FAA TRACON SMA TRACON (SMA)
05:41AM 32.9286 -97.9442 104° East 408 470 12,800 -1,800 Descending FAA TRACON SMA TRACON (SMA)
05:42AM 32.9100 -97.8542 105° East 403 464 11,300 -1,380 Descending FAA TRACON SMA TRACON (SMA)
05:42AM 32.8897 -97.7667 110° East 397 457 11,000 -420 Descending FAA TRACON SMA TRACON (SMA)
05:43AM 32.8661 -97.6914 113° Southeast 395 455 10,800 -540 Descending FAA TRACON SMA TRACON (SMA)
05:44AM 32.8389 -97.6144 109° East 362 417 10,300 -660 Descending FAA TRACON SMA TRACON (SMA)
05:44AM 32.8172 -97.5414 99° East 336 387 10,000 -1,020 Descending FAA TRACON SMA TRACON (SMA)
05:45AM 32.8089 -97.4800 100° East 308 354 9,000 -1,800 Descending FAA TRACON SMA TRACON (SMA)
05:46AM 32.7989 -97.4122 99° East 300 345 7,600 -1,980 Descending FAA TRACON SMA TRACON (SMA)
05:46AM 32.7903 -97.3500 98° East 273 314 6,400 -1,500 Descending FAA TRACON SMA TRACON (SMA)
05:47AM 32.7839 -97.2989 98° East 253 291 5,700 -1,020 Descending FAA TRACON SMA TRACON (SMA)
05:48AM 32.7772 -97.2453 100° East 235 270 5,100 -780 Descending FAA TRACON SMA TRACON (SMA)
05:48AM 32.7703 -97.1964 115° Southeast 212 244 4,700 -780 Descending FAA TRACON SMA TRACON (SMA)
05:49AM 32.7550 -97.1581 109° East 188 216 4,100 -1,020 Descending FAA TRACON SMA TRACON (SMA)
05:50AM 32.7456 -97.1247 76° East 182 209 3,400 -1,020 Descending FAA TRACON SMA TRACON (SMA)
05:50AM 32.7536 -97.0864 50° Northeast 172 198 2,800 -840 Descending FAA TRACON SMA TRACON (SMA)
05:51AM 32.7739 -97.0581 50° Northeast 163 188 2,300 -780 Descending FAA TRACON SMA TRACON (SMA)